createdAt,value
2018-05-23T00:00:48.899Z,17.30
2018-05-23T00:04:52.203Z,17.20
2018-05-23T00:08:55.503Z,17.20
2018-05-23T00:12:58.799Z,17.20
2018-05-23T00:17:02.083Z,17.20
2018-05-23T00:21:04.636Z,17.10
2018-05-23T00:25:07.176Z,17.20
2018-05-23T00:29:10.478Z,17.20
2018-05-23T00:33:13.783Z,17.20
2018-05-23T00:37:16.291Z,17.10
2018-05-23T00:41:19.623Z,17.20
2018-05-23T00:45:22.157Z,17.10
2018-05-23T00:49:24.697Z,17.10
2018-05-23T00:53:27.236Z,17.10
2018-05-23T00:57:30.507Z,17.00
2018-05-23T01:01:33.045Z,17.00
2018-05-23T01:05:35.576Z,17.00
2018-05-23T01:09:38.122Z,17.00
2018-05-23T01:13:40.657Z,17.00
2018-05-23T01:17:43.173Z,16.90
2018-05-23T01:21:45.717Z,16.90
2018-05-23T01:25:48.265Z,16.90
2018-05-23T01:29:50.800Z,16.90
2018-05-23T01:33:54.105Z,16.80
2018-05-23T01:37:56.624Z,16.70
2018-05-23T01:41:59.164Z,16.80
2018-05-23T01:46:01.706Z,16.80
2018-05-23T01:50:04.252Z,16.70
2018-05-23T01:54:06.800Z,16.70
2018-05-23T01:58:09.312Z,16.70
2018-05-23T02:02:11.861Z,16.70
2018-05-23T02:06:14.396Z,16.70
2018-05-23T02:10:16.963Z,16.60
2018-05-23T02:14:19.521Z,16.60
2018-05-23T02:18:22.057Z,16.60
2018-05-23T02:22:24.577Z,16.60
2018-05-23T02:26:27.116Z,16.60
2018-05-23T02:30:29.657Z,16.60
2018-05-23T02:34:32.196Z,16.60
2018-05-23T02:38:34.746Z,16.60
2018-05-23T02:42:37.265Z,16.60
2018-05-23T02:46:39.805Z,16.60
2018-05-23T02:50:42.340Z,16.60
2018-05-23T02:54:44.879Z,16.70
2018-05-23T02:58:47.424Z,16.60
2018-05-23T03:02:49.971Z,16.70
2018-05-23T03:06:52.512Z,16.70
2018-05-23T03:10:55.052Z,16.60
2018-05-23T03:14:57.587Z,16.60
2018-05-23T03:19:00.133Z,16.60
2018-05-23T03:23:02.656Z,16.60
2018-05-23T03:27:05.197Z,16.60
2018-05-23T03:31:07.740Z,16.60
2018-05-23T03:35:10.287Z,16.50
2018-05-23T03:39:12.840Z,16.50
2018-05-23T03:43:15.365Z,16.50
2018-05-23T03:47:17.909Z,16.50
2018-05-23T03:51:20.467Z,16.50
2018-05-23T03:55:23.084Z,16.50
2018-05-23T03:59:37.291Z,16.50
2018-05-23T04:03:51.396Z,16.50
2018-05-23T04:07:53.928Z,16.50
2018-05-23T04:11:56.464Z,16.50
2018-05-23T04:15:59.021Z,16.50
2018-05-23T04:20:01.552Z,16.40
2018-05-23T04:24:04.111Z,16.40
2018-05-23T04:28:06.657Z,16.50
2018-05-23T04:32:09.200Z,16.40
2018-05-23T04:36:11.749Z,16.50
2018-05-23T04:40:14.295Z,16.50
2018-05-23T04:44:16.820Z,16.50
2018-05-23T04:48:19.361Z,16.50
2018-05-23T04:52:21.901Z,16.50
2018-05-23T04:56:24.438Z,16.50
2018-05-23T05:00:26.978Z,16.50
2018-05-23T05:04:30.277Z,16.60
2018-05-23T05:08:32.799Z,16.60
2018-05-23T05:12:35.343Z,16.60
2018-05-23T05:16:37.880Z,16.70
2018-05-23T05:20:40.436Z,16.70
2018-05-23T05:24:42.980Z,16.70
2018-05-23T05:28:45.505Z,16.80
2018-05-23T05:32:48.045Z,16.80
2018-05-23T05:36:50.579Z,16.90
2018-05-23T05:40:53.117Z,16.90
2018-05-23T05:44:55.663Z,16.90
2018-05-23T05:48:58.188Z,17.00
2018-05-23T05:53:00.724Z,17.00
2018-05-23T05:57:03.260Z,17.10
2018-05-23T06:01:05.806Z,17.20
2018-05-23T06:05:08.352Z,17.30
2018-05-23T06:09:10.937Z,17.30
2018-05-23T06:13:13.436Z,17.40
2018-05-23T06:17:15.969Z,17.50
2018-05-23T06:21:18.512Z,17.60
2018-05-23T06:25:21.048Z,17.70
2018-05-23T06:29:23.568Z,17.80
2018-05-23T06:33:26.872Z,18.00
2018-05-23T06:37:29.403Z,17.90
2018-05-23T06:41:31.944Z,18.10
2018-05-23T06:45:34.486Z,18.20
2018-05-23T06:49:37.003Z,18.30
2018-05-23T06:53:39.549Z,18.40
2018-05-23T06:57:42.092Z,18.50
2018-05-23T07:01:44.633Z,18.60
2018-05-23T07:05:47.200Z,18.80
2018-05-23T07:09:49.709Z,18.90
2018-05-23T07:13:52.248Z,19.00
2018-05-23T07:17:54.904Z,19.10
2018-05-23T07:21:58.106Z,19.30
2018-05-23T07:26:00.645Z,19.30
2018-05-23T07:30:03.168Z,19.50
2018-05-23T07:34:06.473Z,19.70
2018-05-23T07:38:09.780Z,19.80
2018-05-23T07:42:12.332Z,19.70
2018-05-23T07:46:14.872Z,19.90
2018-05-23T07:50:17.389Z,19.90
2018-05-23T07:54:19.924Z,20.00
2018-05-23T07:58:22.456Z,20.10
2018-05-23T08:02:24.984Z,20.20
2018-05-23T08:06:28.288Z,20.40
2018-05-23T08:10:30.841Z,20.30
2018-05-23T08:14:33.368Z,20.50
2018-05-23T08:18:35.908Z,20.70
2018-05-23T08:22:38.509Z,20.80
2018-05-23T08:26:41.000Z,21.00
2018-05-23T08:30:43.536Z,21.20
2018-05-23T08:34:46.066Z,21.40
2018-05-23T08:38:48.616Z,21.50
2018-05-23T08:42:51.148Z,21.80
2018-05-23T08:46:53.684Z,21.90
2018-05-23T08:50:56.228Z,22.10
2018-05-23T08:54:59.507Z,22.50
2018-05-23T08:59:02.041Z,22.40
2018-05-23T09:03:04.576Z,22.60
2018-05-23T09:07:07.117Z,22.80
2018-05-23T09:11:09.648Z,23.00
2018-05-23T09:15:12.168Z,23.10
2018-05-23T09:19:14.708Z,23.20
2018-05-23T09:23:17.247Z,23.30
2018-05-23T09:27:19.779Z,23.40
2018-05-23T09:31:22.316Z,23.50
2018-05-23T09:35:24.833Z,23.60
2018-05-23T09:39:27.381Z,23.70
2018-05-23T09:43:29.916Z,23.90
2018-05-23T09:47:32.453Z,23.90
2018-05-23T09:51:34.988Z,24.00
2018-05-23T09:55:37.504Z,24.10
2018-05-23T09:59:40.040Z,24.10
2018-05-23T10:03:42.576Z,24.20
2018-05-23T10:07:45.112Z,24.30
2018-05-23T10:11:47.651Z,24.40
2018-05-23T10:15:50.166Z,24.60
2018-05-23T10:19:52.704Z,24.60
2018-05-23T10:23:55.244Z,24.70
2018-05-23T10:27:57.785Z,24.80
2018-05-23T10:32:00.311Z,24.80
2018-05-23T10:36:02.828Z,24.90
2018-05-23T10:40:05.376Z,24.90
2018-05-23T10:44:07.904Z,25.00
2018-05-23T10:48:10.448Z,25.10
2018-05-23T10:52:12.996Z,25.10
2018-05-23T10:56:15.545Z,25.10
2018-05-23T11:00:18.082Z,25.20
2018-05-23T11:04:20.617Z,25.30
2018-05-23T11:08:23.163Z,25.40
2018-05-23T11:12:25.708Z,25.50
2018-05-23T11:16:28.241Z,25.50
2018-05-23T11:20:30.768Z,25.60
2018-05-23T11:24:34.083Z,25.70
2018-05-23T11:28:36.634Z,25.70
2018-05-23T11:32:39.172Z,25.80
2018-05-23T11:36:41.708Z,25.90
2018-05-23T11:40:44.236Z,25.90
2018-05-23T11:44:46.768Z,26.10
2018-05-23T11:48:49.305Z,26.20
2018-05-23T11:52:51.840Z,26.20
2018-05-23T11:56:54.363Z,26.30
2018-05-23T12:00:56.895Z,26.40
2018-05-23T12:04:59.429Z,26.40
2018-05-23T12:09:01.972Z,26.50
2018-05-23T12:13:04.511Z,26.60
2018-05-23T12:17:07.061Z,26.70
2018-05-23T12:21:09.574Z,26.70
2018-05-23T12:25:12.141Z,26.70
2018-05-23T12:29:15.446Z,26.70
2018-05-23T12:33:17.981Z,26.70
2018-05-23T12:37:20.524Z,26.80
2018-05-23T12:41:23.056Z,26.90
2018-05-23T12:45:25.593Z,27.00
2018-05-23T12:49:28.127Z,27.00
2018-05-23T12:53:30.665Z,27.10
2018-05-23T12:57:33.201Z,27.20
2018-05-23T13:01:35.732Z,27.40
2018-05-23T13:05:38.273Z,27.60
2018-05-23T13:09:40.816Z,27.80
2018-05-23T13:13:43.358Z,27.90
2018-05-23T13:17:45.971Z,28.10
2018-05-23T13:21:48.459Z,28.30
2018-05-23T13:25:51.848Z,28.60
2018-05-23T13:29:54.337Z,28.60
2018-05-23T13:33:56.889Z,28.80
2018-05-23T13:37:59.437Z,28.80
2018-05-23T13:42:01.967Z,28.90
2018-05-23T13:46:04.512Z,29.00
2018-05-23T13:50:07.060Z,29.00
2018-05-23T13:54:09.596Z,29.10
2018-05-23T13:58:12.144Z,29.20
2018-05-23T14:02:14.673Z,29.30
2018-05-23T14:06:17.221Z,29.30
2018-05-23T14:10:19.764Z,29.30
2018-05-23T14:14:22.301Z,29.30
2018-05-23T14:18:24.840Z,29.30
2018-05-23T14:22:27.393Z,29.40
2018-05-23T14:26:31.044Z,29.40
2018-05-23T14:30:33.591Z,29.40
2018-05-23T14:34:36.949Z,29.40
2018-05-23T14:38:39.504Z,29.50
2018-05-23T14:42:42.046Z,29.60
2018-05-23T14:46:44.564Z,29.60
2018-05-23T14:50:47.096Z,29.70
2018-05-23T14:54:49.647Z,29.70
2018-05-23T14:58:52.196Z,29.60
2018-05-23T15:02:54.741Z,29.60
2018-05-23T15:06:57.264Z,29.40
2018-05-23T15:10:59.801Z,29.40
2018-05-23T15:15:02.350Z,29.30
2018-05-23T15:19:04.885Z,29.10
2018-05-23T15:23:07.421Z,29.00
2018-05-23T15:27:09.973Z,29.00
2018-05-23T15:31:12.501Z,29.00
2018-05-23T15:35:15.056Z,28.90
2018-05-23T15:39:17.607Z,28.90
2018-05-23T15:43:20.140Z,29.00
2018-05-23T15:47:22.661Z,29.10
2018-05-23T15:51:25.205Z,29.30
2018-05-23T15:55:27.740Z,29.50
2018-05-23T15:59:30.286Z,29.70
2018-05-23T16:03:32.825Z,29.90
2018-05-23T16:07:35.345Z,30.10
2018-05-23T16:11:37.900Z,30.20
2018-05-23T16:15:40.448Z,30.30
2018-05-23T16:19:42.981Z,30.50
2018-05-23T16:23:45.520Z,30.50
2018-05-23T16:27:48.809Z,30.30
2018-05-23T16:31:51.347Z,30.30
2018-05-23T16:35:53.896Z,30.00
2018-05-23T16:39:56.445Z,29.90
2018-05-23T16:43:58.998Z,29.70
2018-05-23T16:48:01.520Z,29.50
2018-05-23T16:52:04.079Z,29.30
2018-05-23T16:56:06.624Z,29.20
2018-05-23T17:00:09.163Z,29.00
2018-05-23T17:04:11.712Z,28.80
2018-05-23T17:08:14.256Z,28.60
2018-05-23T17:12:16.785Z,28.40
2018-05-23T17:16:19.325Z,28.20
2018-05-23T17:20:21.872Z,28.10
2018-05-23T17:24:24.412Z,27.90
2018-05-23T17:28:26.968Z,27.70
2018-05-23T17:32:29.493Z,27.50
2018-05-23T17:36:32.053Z,27.30
2018-05-23T17:40:34.592Z,27.10
2018-05-23T17:44:37.132Z,27.00
2018-05-23T17:48:39.680Z,26.90
2018-05-23T17:52:42.204Z,26.70
2018-05-23T17:56:44.735Z,26.60
2018-05-23T18:00:47.273Z,26.50
2018-05-23T18:04:49.817Z,26.30
2018-05-23T18:08:52.361Z,26.10
2018-05-23T18:12:54.893Z,25.90
2018-05-23T18:16:57.454Z,25.80
2018-05-23T18:20:59.989Z,25.60
2018-05-23T18:25:02.541Z,25.50
2018-05-23T18:29:05.083Z,25.30
2018-05-23T18:33:07.614Z,25.20
2018-05-23T18:37:10.166Z,25.00
2018-05-23T18:41:12.712Z,24.90
2018-05-23T18:45:15.262Z,24.70
2018-05-23T18:49:17.865Z,24.60
2018-05-23T18:53:20.366Z,24.50
2018-05-23T18:57:22.920Z,24.30
2018-05-23T19:01:25.477Z,24.10
2018-05-23T19:05:28.059Z,24.00
2018-05-23T19:09:30.572Z,23.80
2018-05-23T19:13:33.108Z,23.70
2018-05-23T19:17:35.669Z,23.50
2018-05-23T19:21:38.205Z,23.40
2018-05-23T19:25:40.751Z,23.20
2018-05-23T19:29:43.320Z,23.00
2018-05-23T19:33:45.860Z,22.90
2018-05-23T19:37:48.403Z,22.70
2018-05-23T19:41:50.959Z,22.60
2018-05-23T19:45:53.508Z,22.50
2018-05-23T19:49:56.876Z,22.40
2018-05-23T19:53:59.409Z,22.20
2018-05-23T19:58:01.942Z,22.10
2018-05-23T20:02:04.497Z,22.00
2018-05-23T20:06:07.046Z,21.90
2018-05-23T20:10:10.361Z,21.60
2018-05-23T20:14:12.991Z,21.50
2018-05-23T20:18:15.444Z,21.50
2018-05-23T20:22:17.980Z,21.40
2018-05-23T20:26:20.539Z,21.30
2018-05-23T20:30:23.086Z,21.20
2018-05-23T20:34:25.638Z,21.00
2018-05-23T20:38:28.177Z,20.90
2018-05-23T20:42:30.720Z,20.80
2018-05-23T20:46:33.272Z,20.70
2018-05-23T20:50:35.807Z,20.60
2018-05-23T20:54:38.362Z,20.50
2018-05-23T20:58:41.022Z,20.50
2018-05-23T21:02:43.437Z,20.40
2018-05-23T21:06:45.983Z,20.30
2018-05-23T21:10:48.524Z,20.20
2018-05-23T21:14:51.067Z,20.10
2018-05-23T21:18:53.596Z,20.10
2018-05-23T21:22:56.140Z,20.00
2018-05-23T21:26:58.683Z,19.90
2018-05-23T21:31:01.228Z,19.90
2018-05-23T21:35:03.845Z,19.80
2018-05-23T21:39:06.312Z,19.70
2018-05-23T21:43:08.844Z,19.60
2018-05-23T21:47:11.384Z,19.60
2018-05-23T21:51:13.920Z,19.50
2018-05-23T21:55:16.462Z,19.50
2018-05-23T21:59:18.968Z,19.40
2018-05-23T22:03:21.501Z,19.40
2018-05-23T22:07:24.042Z,19.30
2018-05-23T22:11:26.573Z,19.20
2018-05-23T22:15:29.116Z,19.10
2018-05-23T22:19:31.645Z,19.00
2018-05-23T22:23:34.183Z,18.90
2018-05-23T22:27:36.711Z,18.90
2018-05-23T22:31:39.248Z,18.80
2018-05-23T22:35:41.789Z,18.70
2018-05-23T22:39:44.304Z,18.70
2018-05-23T22:43:46.833Z,18.60
2018-05-23T22:47:49.372Z,18.60
2018-05-23T22:51:51.912Z,18.50
2018-05-23T22:55:54.444Z,18.50
2018-05-23T22:59:56.972Z,18.40
2018-05-23T23:03:59.484Z,18.30
2018-05-23T23:08:02.021Z,18.30
2018-05-23T23:12:04.564Z,18.20
2018-05-23T23:16:07.102Z,18.10
2018-05-23T23:20:09.644Z,18.00
2018-05-23T23:24:12.261Z,18.00
2018-05-23T23:28:14.797Z,17.90
2018-05-23T23:32:18.097Z,17.80
2018-05-23T23:36:20.647Z,17.80
2018-05-23T23:40:23.185Z,17.80
2018-05-23T23:44:25.708Z,17.70
2018-05-23T23:48:28.241Z,17.70
2018-05-23T23:52:30.777Z,17.60
2018-05-23T23:56:33.311Z,17.50
